VECC/CCU METAR and TAF weather

Enter ICAO airport designator
Station Type Date Time Source
VECC METAR 2023/02/06 00:30 UTC NOAA

VECC 060030Z 00000KT 1400 R01R/2000 BR NSC 19/16 Q1012 NOSIG


Station Type Date Time Source
VECC Decoded METAR 2023/02/06 00:30 UTC NOAA

Calcutta / Dum Dum, India (VECC) 22-39N 088-27E 6M
Feb 05, 2023 - 07:30 PM EST / 2023.02.06 0030 UTC
Wind: Calm:0
Visibility: less than 1 mile:0
Weather: mist
Temperature: 66 F (19 C)
Dew Point: 60 F (16 C)
Relative Humidity: 82%
Pressure (altimeter): 29.88 in. Hg (1012 hPa)
ob: VECC 060030Z 00000KT 1400 R01R/2000 BR NSC 19/16 Q1012 NOSIG
cycle: 0

Station Type Date Time Source
VECC TAF 2023/02/05 18:45 UTC NOAA

VECC 051700Z 0518/0624 36005KT 2800 HZ NSC
BECMG 0601/0603 1000 BR
BECMG 0603/0605 28005KT 2500 HZ
BECMG 0607/0609 3500 HZ
BECMG 0620/0622 2000 BR

Example: see airport list